PWSweather.com
Personal Weather Stations
Station Observations
KGRPEEBLES
PeeblesGB EH45 9LX

PeeblesGB EH45 9LX

Lat: 55.64096, Lon: -3.170893

Elevation: 517

Station Type: Watson W-8681

Latest ConditionsUpdated 2:00:02 PM GMT Sunday, Jan 22, 2017
Currently Today's Max Today's Min Today's Average
Temperature 36.5°F2.5°C 36.5°F2.5°C 31.5°F-0.3°C 32.8°F0.4°C
Dew Point -14.8°F-26.0°C -14.8°F-26.0°C -18.7°F-28.2°C -17.9°F-27.7°C
Winds 1.7 mph WSW2.7 kmh WSW 3.1 mph NNE5.0 kmh NNE - 0.2 mph 0.3 kmh
Wind Gusts 5.4 mph8.7 kmh 7.6 mph12.2 kmh - -
Humidity 10% 10% 10% 10%
Pressure 30.12 in1020.0 mb 30.18 in1022.0 mb 30.11 in1019.6 mb -
Precipitation - 0.01 in0.3 mm - -
Hour Temp Dew Point Humidity Winds Wind Gusts Pressure Precip Precip Rate Daily Precip Total
02:00 PM 36.5°F2.5°C -14.8°F-26.0°C 10% 1.7 mph WSW2.7 kmh WSW 5.4 mph8.7 kmh 30.12 in1020.0 mb 0.00 in0.0 mm 0.00 in0.0 mm 0.01 in0.3 mm
01:45 PM 36.3°F2.4°C -15.0°F-26.1°C 10% 1.0 mph NW1.6 kmh NW 2.2 mph3.5 kmh 30.12 in1020.0 mb 0.00 in0.0 mm 0.00 in0.0 mm 0.01 in0.3 mm
01:30 PM 36.3°F2.4°C -15.0°F-26.1°C 10% 2.0 mph W3.2 kmh W 3.8 mph6.1 kmh 30.12 in1020.0 mb 0.00 in0.0 mm 0.00 in0.0 mm 0.01 in0.3 mm
01:15 PM 36.1°F2.3°C -15.1°F-26.2°C 10% 2.3 mph NW3.7 kmh NW 3.1 mph5.0 kmh 30.12 in1020.0 mb 0.00 in0.0 mm 0.00 in0.0 mm 0.01 in0.3 mm
01:00 PM 36.0°F2.2°C -15.3°F-26.3°C 10% 0.6 mph NE1.0 kmh NE 2.2 mph3.5 kmh 30.11 in1019.6 mb 0.00 in0.0 mm 0.00 in0.0 mm 0.01 in0.3 mm
12:45 PM 35.8°F2.1°C -15.4°F-26.3°C 10% 0.8 mph NE1.3 kmh NE 1.6 mph2.6 kmh 30.12 in1020.0 mb 0.00 in0.0 mm 0.00 in0.0 mm 0.01 in0.3 mm
12:30 PM 35.8°F2.1°C -15.4°F-26.3°C 10% 0.4 mph E0.6 kmh E 0.7 mph1.1 kmh 30.12 in1020.0 mb 0.00 in0.0 mm 0.00 in0.0 mm 0.01 in0.3 mm
12:15 PM 35.2°F1.8°C -15.8°F-26.6°C 10% 0.2 mph ESE0.3 kmh ESE 0.7 mph1.1 kmh 30.12 in1020.0 mb 0.00 in0.0 mm 0.00 in0.0 mm 0.01 in0.3 mm
12:00 PM 34.9°F1.6°C -16.1°F-26.7°C 10% 0.1 mph SE0.2 kmh SE 0.7 mph1.1 kmh 30.13 in1020.3 mb 0.00 in0.0 mm 0.00 in0.0 mm 0.01 in0.3 mm
11:45 AM 34.7°F1.5°C -16.2°F-26.8°C 10% 0.1 mph NE0.2 kmh NE 0.7 mph1.1 kmh 30.13 in1020.3 mb 0.01 in0.3 mm 0.00 in0.0 mm 0.01 in0.3 mm
11:30 AM 34.5°F1.4°C -16.4°F-26.9°C 10% Calm Calm -- 30.13 in1020.3 mb 0.01 in0.3 mm 0.00 in0.0 mm 0.01 in0.3 mm
11:15 AM 34.7°F1.5°C -16.2°F-26.8°C 10% 0.1 mph S0.2 kmh S 0.7 mph1.1 kmh 30.13 in1020.3 mb 0.01 in0.3 mm 0.00 in0.0 mm 0.01 in0.3 mm
11:00 AM 34.7°F1.5°C -16.2°F-26.8°C 10% 0.1 mph S0.2 kmh S 0.7 mph1.1 kmh 30.14 in1020.7 mb 0.01 in0.3 mm 0.01 in0.3 mm 0.01 in0.3 mm
10:45 AM 34.7°F1.5°C -16.2°F-26.8°C 10% Calm Calm -- 30.14 in1020.7 mb 0.00 in0.0 mm 0.00 in0.0 mm 0.00 in0.0 mm
10:30 AM 34.5°F1.4°C -16.4°F-26.9°C 10% Calm Calm -- 30.13 in1020.3 mb 0.00 in0.0 mm 0.00 in0.0 mm 0.00 in0.0 mm
10:24 AM 32.5°F0.3°C -18.2°F-27.9°C 10% Calm Calm -- 30.12 in1020.0 mb 0.00 in0.0 mm 0.00 in0.0 mm 0.00 in0.0 mm
10:23 AM 32.2°F0.1°C -18.4°F-28.0°C 10% Calm Calm -- 30.14 in1020.7 mb 0.00 in0.0 mm 0.00 in0.0 mm 0.00 in0.0 mm
10:22 AM 31.8°F-0.1°C -18.7°F-28.2°C 10% Calm Calm -- 30.17 in1021.7 mb 0.00 in0.0 mm 0.00 in0.0 mm 0.00 in0.0 mm
10:17 AM 34.2°F1.2°C -16.9°F-27.2°C 10% 0.2 mph N0.3 kmh N 0.7 mph1.1 kmh 30.13 in1020.3 mb 0.00 in0.0 mm 0.00 in0.0 mm 0.00 in0.0 mm
10:12 AM 34.2°F1.2°C -16.9°F-27.2°C 10% 0.2 mph N0.3 kmh N 0.7 mph1.1 kmh 30.14 in1020.7 mb 0.00 in0.0 mm 0.00 in0.0 mm 0.00 in0.0 mm
12:15 AM 31.6°F-0.2°C -18.6°F-28.1°C 10% 0.2 mph SE0.3 kmh SE 0.7 mph1.1 kmh 30.17 in1021.7 mb 0.00 in0.0 mm 0.00 in0.0 mm 0.00 in0.0 mm
12:00 AM 31.5°F-0.3°C -18.7°F-28.2°C 10% Calm Calm 0.7 mph1.1 kmh 30.18 in1022.0 mb 0.00 in0.0 mm 0.00 in0.0 mm 0.00 in0.0 mm